sensor_id;sensor_type;location;lat;lon;timestamp;pressure;altitude;pressure_sealevel;temperature;humidity
21900;BME280;11114;50.658;12.704;2023-11-21T00:00:10;95385.06;;;5.04;87.78
21900;BME280;11114;50.658;12.704;2023-11-21T00:02:58;95379.88;;;5.04;87.92
21900;BME280;11114;50.658;12.704;2023-11-21T00:05:44;95375.50;;;5.04;87.60
21900;BME280;11114;50.658;12.704;2023-11-21T00:08:31;95375.81;;;5.01;87.60
21900;BME280;11114;50.658;12.704;2023-11-21T00:11:18;95374.69;;;4.96;87.84
21900;BME280;11114;50.658;12.704;2023-11-21T00:14:05;95380.19;;;4.93;87.58
21900;BME280;11114;50.658;12.704;2023-11-21T00:16:51;95388.50;;;4.96;87.68
21900;BME280;11114;50.658;12.704;2023-11-21T00:19:38;95383.44;;;5.03;88.02
21900;BME280;11114;50.658;12.704;2023-11-21T00:22:28;95381.84;;;5.10;87.74
21900;BME280;11114;50.658;12.704;2023-11-21T00:25:14;95381.47;;;5.13;87.44
21900;BME280;11114;50.658;12.704;2023-11-21T00:28:02;95375.31;;;5.14;87.58
21900;BME280;11114;50.658;12.704;2023-11-21T00:30:49;95384.72;;;5.15;87.11
21900;BME280;11114;50.658;12.704;2023-11-21T00:33:37;95385.38;;;5.17;86.83
21900;BME280;11114;50.658;12.704;2023-11-21T00:36:24;95390.59;;;5.17;87.10
21900;BME280;11114;50.658;12.704;2023-11-21T00:39:12;95385.22;;;5.18;86.90
21900;BME280;11114;50.658;12.704;2023-11-21T00:41:58;95398.41;;;5.17;86.88
21900;BME280;11114;50.658;12.704;2023-11-21T00:44:46;95391.56;;;5.16;86.47
21900;BME280;11114;50.658;12.704;2023-11-21T00:47:32;95393.81;;;5.11;87.06
21900;BME280;11114;50.658;12.704;2023-11-21T00:50:19;95391.88;;;5.13;87.12
21900;BME280;11114;50.658;12.704;2023-11-21T00:53:06;95400.16;;;5.16;86.88
21900;BME280;11114;50.658;12.704;2023-11-21T00:55:54;95394.63;;;5.27;86.92
21900;BME280;11114;50.658;12.704;2023-11-21T00:58:43;95400.13;;;5.32;86.69
21900;BME280;11114;50.658;12.704;2023-11-21T01:01:32;95401.75;;;5.41;86.77
21900;BME280;11114;50.658;12.704;2023-11-21T01:04:19;95407.78;;;5.42;86.24
21900;BME280;11114;50.658;12.704;2023-11-21T01:07:30;95407.13;;;5.40;85.77
21900;BME280;11114;50.658;12.704;2023-11-21T01:10:17;95409.88;;;5.46;86.27
21900;BME280;11114;50.658;12.704;2023-11-21T01:13:04;95408.41;;;5.51;86.29
21900;BME280;11114;50.658;12.704;2023-11-21T01:15:51;95410.66;;;5.54;86.14
21900;BME280;11114;50.658;12.704;2023-11-21T01:18:38;95409.19;;;5.60;85.79
21900;BME280;11114;50.658;12.704;2023-11-21T01:21:25;95413.41;;;5.61;85.78
21900;BME280;11114;50.658;12.704;2023-11-21T01:24:12;95410.31;;;5.65;85.82
21900;BME280;11114;50.658;12.704;2023-11-21T01:26:59;95412.91;;;5.65;85.36
21900;BME280;11114;50.658;12.704;2023-11-21T01:29:45;95407.06;;;5.63;85.19
21900;BME280;11114;50.658;12.704;2023-11-21T01:32:32;95406.09;;;5.64;85.33
21900;BME280;11114;50.658;12.704;2023-11-21T01:35:19;95404.13;;;5.66;85.25
21900;BME280;11114;50.658;12.704;2023-11-21T01:38:05;95402.19;;;5.68;85.40
21900;BME280;11114;50.658;12.704;2023-11-21T01:40:54;95402.50;;;5.65;85.09
21900;BME280;11114;50.658;12.704;2023-11-21T01:43:41;95400.75;;;5.50;84.81
21900;BME280;11114;50.658;12.704;2023-11-21T01:46:28;95399.00;;;5.43;85.09
21900;BME280;11114;50.658;12.704;2023-11-21T01:49:15;95401.13;;;5.39;85.21
21900;BME280;11114;50.658;12.704;2023-11-21T01:52:02;95402.09;;;5.38;85.36
21900;BME280;11114;50.658;12.704;2023-11-21T01:54:50;95406.34;;;5.31;85.62
21900;BME280;11114;50.658;12.704;2023-11-21T01:57:38;95405.19;;;5.34;85.89
21900;BME280;11114;50.658;12.704;2023-11-21T02:00:26;95394.78;;;5.34;85.78
21900;BME280;11114;50.658;12.704;2023-11-21T02:03:14;95408.78;;;5.33;85.88
21900;BME280;11114;50.658;12.704;2023-11-21T02:06:01;95403.22;;;5.28;85.93
21900;BME280;11114;50.658;12.704;2023-11-21T02:08:48;95403.91;;;5.22;85.95
21900;BME280;11114;50.658;12.704;2023-11-21T02:11:35;95404.09;;;5.12;85.95
21900;BME280;11114;50.658;12.704;2023-11-21T02:14:22;95404.59;;;5.08;86.43
21900;BME280;11114;50.658;12.704;2023-11-21T02:17:08;95412.38;;;5.08;86.44
21900;BME280;11114;50.658;12.704;2023-11-21T02:19:55;95412.69;;;5.05;86.14
21900;BME280;11114;50.658;12.704;2023-11-21T02:22:43;95411.41;;;5.01;86.38
21900;BME280;11114;50.658;12.704;2023-11-21T02:25:33;95410.41;;;5.02;86.45
21900;BME280;11114;50.658;12.704;2023-11-21T02:28:23;95413.69;;;5.04;86.40
21900;BME280;11114;50.658;12.704;2023-11-21T02:31:16;95414.00;;;4.93;86.55
21900;BME280;11114;50.658;12.704;2023-11-21T02:34:04;95415.31;;;4.89;86.71
21900;BME280;11114;50.658;12.704;2023-11-21T02:36:51;95415.00;;;4.92;87.15
21900;BME280;11114;50.658;12.704;2023-11-21T02:39:38;95413.69;;;4.88;87.14
21900;BME280;11114;50.658;12.704;2023-11-21T02:42:24;95416.94;;;4.82;87.64
21900;BME280;11114;50.658;12.704;2023-11-21T02:45:13;95422.16;;;4.90;87.81
21900;BME280;11114;50.658;12.704;2023-11-21T02:48:00;95417.59;;;4.92;87.73
21900;BME280;11114;50.658;12.704;2023-11-21T02:50:46;95428.78;;;5.00;87.80
21900;BME280;11114;50.658;12.704;2023-11-21T02:53:33;95420.34;;;4.98;87.55
21900;BME280;11114;50.658;12.704;2023-11-21T02:56:20;95426.03;;;4.94;87.80
21900;BME280;11114;50.658;12.704;2023-11-21T02:59:06;95424.75;;;4.98;88.06
21900;BME280;11114;50.658;12.704;2023-11-21T03:01:53;95429.13;;;4.97;87.70
21900;BME280;11114;50.658;12.704;2023-11-21T03:04:39;95418.41;;;4.92;87.73
21900;BME280;11114;50.658;12.704;2023-11-21T03:07:26;95422.63;;;4.93;87.95
21900;BME280;11114;50.658;12.704;2023-11-21T03:10:13;95418.22;;;4.94;88.13
21900;BME280;11114;50.658;12.704;2023-11-21T03:12:59;95424.75;;;4.98;87.96
21900;BME280;11114;50.658;12.704;2023-11-21T03:15:45;95432.72;;;4.96;88.19
21900;BME280;11114;50.658;12.704;2023-11-21T03:18:32;95422.13;;;4.98;88.20
21900;BME280;11114;50.658;12.704;2023-11-21T03:21:18;95419.22;;;5.01;88.33
21900;BME280;11114;50.658;12.704;2023-11-21T03:24:06;95420.34;;;5.06;88.25
21900;BME280;11114;50.658;12.704;2023-11-21T03:26:54;95417.25;;;5.11;87.85
21900;BME280;11114;50.658;12.704;2023-11-21T03:29:41;95420.50;;;5.05;87.65
21900;BME280;11114;50.658;12.704;2023-11-21T03:32:28;95420.19;;;5.00;88.04
21900;BME280;11114;50.658;12.704;2023-11-21T03:35:14;95425.53;;;5.06;88.16
21900;BME280;11114;50.658;12.704;2023-11-21T03:38:01;95420.84;;;5.10;88.03
21900;BME280;11114;50.658;12.704;2023-11-21T03:40:48;95423.75;;;5.15;87.66
21900;BME280;11114;50.658;12.704;2023-11-21T03:43:35;95428.47;;;5.19;87.63
21900;BME280;11114;50.658;12.704;2023-11-21T03:46:23;95433.84;;;5.18;87.17
21900;BME280;11114;50.658;12.704;2023-11-21T03:49:11;95430.91;;;5.21;87.15
21900;BME280;11114;50.658;12.704;2023-11-21T03:52:00;95436.25;;;5.27;87.18
21900;BME280;11114;50.658;12.704;2023-11-21T03:54:47;95432.38;;;5.31;86.76
21900;BME280;11114;50.658;12.704;2023-11-21T03:57:32;95436.44;;;5.34;86.94
21900;BME280;11114;50.658;12.704;2023-11-21T04:00:19;95445.19;;;5.33;86.71
21900;BME280;11114;50.658;12.704;2023-11-21T04:03:06;95442.78;;;5.31;86.85
21900;BME280;11114;50.658;12.704;2023-11-21T04:05:52;95438.88;;;5.27;86.46
21900;BME280;11114;50.658;12.704;2023-11-21T04:08:39;95434.94;;;5.23;86.68
21900;BME280;11114;50.658;12.704;2023-11-21T04:11:26;95432.53;;;5.22;86.85
21900;BME280;11114;50.658;12.704;2023-11-21T04:14:13;95430.75;;;5.22;86.96
21900;BME280;11114;50.658;12.704;2023-11-21T04:16:59;95439.66;;;5.20;86.88
21900;BME280;11114;50.658;12.704;2023-11-21T04:19:46;95436.94;;;5.13;86.87
21900;BME280;11114;50.658;12.704;2023-11-21T04:22:32;95439.06;;;5.10;86.59
21900;BME280;11114;50.658;12.704;2023-11-21T04:25:19;95443.13;;;5.04;86.22
21900;BME280;11114;50.658;12.704;2023-11-21T04:28:06;95453.03;;;5.01;86.56
21900;BME280;11114;50.658;12.704;2023-11-21T04:30:53;95450.09;;;4.96;86.58
21900;BME280;11114;50.658;12.704;2023-11-21T04:33:39;95458.38;;;4.99;86.65
21900;BME280;11114;50.658;12.704;2023-11-21T04:36:26;95463.59;;;4.99;86.42
21900;BME280;11114;50.658;12.704;2023-11-21T04:39:12;95456.59;;;4.92;86.70
21900;BME280;11114;50.658;12.704;2023-11-21T04:41:58;95460.50;;;4.88;86.56
21900;BME280;11114;50.658;12.704;2023-11-21T04:44:46;95457.59;;;4.83;86.38
21900;BME280;11114;50.658;12.704;2023-11-21T04:47:32;95457.53;;;4.75;86.43
21900;BME280;11114;50.658;12.704;2023-11-21T04:50:19;95464.06;;;4.71;86.85
21900;BME280;11114;50.658;12.704;2023-11-21T04:53:06;95469.75;;;4.74;87.24
21900;BME280;11114;50.658;12.704;2023-11-21T04:55:52;95469.25;;;4.71;86.76
21900;BME280;11114;50.658;12.704;2023-11-21T04:58:39;95471.19;;;4.69;87.23
21900;BME280;11114;50.658;12.704;2023-11-21T05:01:26;95473.13;;;4.75;87.62
21900;BME280;11114;50.658;12.704;2023-11-21T05:04:13;95470.41;;;4.76;87.55
21900;BME280;11114;50.658;12.704;2023-11-21T05:07:00;95478.69;;;4.80;87.32
21900;BME280;11114;50.658;12.704;2023-11-21T05:09:47;95478.38;;;4.83;87.33
21900;BME280;11114;50.658;12.704;2023-11-21T05:12:33;95482.25;;;4.79;87.08
21900;BME280;11114;50.658;12.704;2023-11-21T05:15:23;95481.47;;;4.78;87.28
21900;BME280;11114;50.658;12.704;2023-11-21T05:18:10;95480.63;;;4.78;87.15
21900;BME280;11114;50.658;12.704;2023-11-21T05:20:58;95490.22;;;4.77;87.36
21900;BME280;11114;50.658;12.704;2023-11-21T05:23:44;95482.75;;;4.74;87.71
21900;BME280;11114;50.658;12.704;2023-11-21T05:26:31;95485.16;;;4.76;87.76
21900;BME280;11114;50.658;12.704;2023-11-21T05:29:19;95497.84;;;4.79;87.97
21900;BME280;11114;50.658;12.704;2023-11-21T05:32:05;95490.56;;;4.82;87.84
21900;BME280;11114;50.658;12.704;2023-11-21T05:34:52;95490.06;;;4.87;87.67
21900;BME280;11114;50.658;12.704;2023-11-21T05:37:39;95494.00;;;4.91;87.75
21900;BME280;11114;50.658;12.704;2023-11-21T05:40:26;95490.56;;;4.90;87.57
21900;BME280;11114;50.658;12.704;2023-11-21T05:43:16;95487.97;;;4.90;87.77
21900;BME280;11114;50.658;12.704;2023-11-21T05:46:03;95496.25;;;4.94;87.48
21900;BME280;11114;50.658;12.704;2023-11-21T05:48:50;95488.63;;;4.92;87.42
21900;BME280;11114;50.658;12.704;2023-11-21T05:51:37;95489.59;;;4.91;87.61
21900;BME280;11114;50.658;12.704;2023-11-21T05:54:25;95496.25;;;4.94;87.69
21900;BME280;11114;50.658;12.704;2023-11-21T05:57:12;95497.38;;;4.91;87.36
21900;BME280;11114;50.658;12.704;2023-11-21T05:59:59;95499.66;;;4.86;87.18
21900;BME280;11114;50.658;12.704;2023-11-21T06:02:54;95500.78;;;4.84;87.88
21900;BME280;11114;50.658;12.704;2023-11-21T06:05:42;95497.84;;;4.79;87.68
21900;BME280;11114;50.658;12.704;2023-11-21T06:08:28;95501.41;;;4.70;87.62
21900;BME280;11114;50.658;12.704;2023-11-21T06:11:14;95500.44;;;4.71;87.87
21900;BME280;11114;50.658;12.704;2023-11-21T06:14:02;95499.31;;;4.73;87.90
21900;BME280;11114;50.658;12.704;2023-11-21T06:16:49;95509.41;;;4.76;87.81
21900;BME280;11114;50.658;12.704;2023-11-21T06:19:37;95518.97;;;4.76;88.22
21900;BME280;11114;50.658;12.704;2023-11-21T06:22:23;95521.91;;;4.81;88.19
21900;BME280;11114;50.658;12.704;2023-11-21T06:25:10;95526.78;;;4.84;87.83
21900;BME280;11114;50.658;12.704;2023-11-21T06:27:57;95527.31;;;4.87;88.05
21900;BME280;11114;50.658;12.704;2023-11-21T06:30:44;95528.09;;;4.88;87.79
21900;BME280;11114;50.658;12.704;2023-11-21T06:33:32;95526.31;;;4.88;87.71
21900;BME280;11114;50.658;12.704;2023-11-21T06:36:18;95533.50;;;4.94;87.97
21900;BME280;11114;50.658;12.704;2023-11-21T06:43:07;95545.66;;;5.02;87.84
21900;BME280;11114;50.658;12.704;2023-11-21T06:45:54;95539.50;;;5.03;87.82
21900;BME280;11114;50.658;12.704;2023-11-21T06:48:42;95542.94;;;5.03;87.34
21900;BME280;11114;50.658;12.704;2023-11-21T06:51:29;95551.41;;;5.05;87.48
21900;BME280;11114;50.658;12.704;2023-11-21T06:54:16;95547.63;;;4.92;87.36
21900;BME280;11114;50.658;12.704;2023-11-21T06:57:03;95544.03;;;4.93;87.49
21900;BME280;11114;50.658;12.704;2023-11-21T06:59:50;95550.22;;;4.92;87.34
21900;BME280;11114;50.658;12.704;2023-11-21T07:02:36;95547.78;;;4.90;87.74
21900;BME280;11114;50.658;12.704;2023-11-21T07:05:23;95557.03;;;4.93;87.45
21900;BME280;11114;50.658;12.704;2023-11-21T07:08:10;95562.22;;;4.85;87.24
21900;BME280;11114;50.658;12.704;2023-11-21T07:10:57;95564.03;;;4.84;87.90
21900;BME280;11114;50.658;12.704;2023-11-21T07:13:43;95567.78;;;4.90;87.76
21900;BME280;11114;50.658;12.704;2023-11-21T07:16:29;95569.72;;;4.88;87.51
21900;BME280;11114;50.658;12.704;2023-11-21T07:19:16;95572.00;;;4.91;88.01
21900;BME280;11114;50.658;12.704;2023-11-21T07:22:03;95571.34;;;4.89;87.90
21900;BME280;11114;50.658;12.704;2023-11-21T07:24:49;95579.31;;;4.87;88.23
21900;BME280;11114;50.658;12.704;2023-11-21T07:27:38;95576.72;;;4.87;87.87
21900;BME280;11114;50.658;12.704;2023-11-21T07:30:24;95578.47;;;4.87;88.02
21900;BME280;11114;50.658;12.704;2023-11-21T07:33:11;95576.53;;;4.89;87.73
21900;BME280;11114;50.658;12.704;2023-11-21T07:35:59;95585.97;;;4.82;88.39
21900;BME280;11114;50.658;12.704;2023-11-21T07:38:46;95595.22;;;4.84;88.30
21900;BME280;11114;50.658;12.704;2023-11-21T07:41:33;95588.69;;;4.80;88.31
21900;BME280;11114;50.658;12.704;2023-11-21T07:44:19;95592.59;;;4.76;88.63
21900;BME280;11114;50.658;12.704;2023-11-21T07:47:06;95595.69;;;4.80;89.28
21900;BME280;11114;50.658;12.704;2023-11-21T07:49:53;95599.59;;;4.84;89.12
21900;BME280;11114;50.658;12.704;2023-11-21T07:52:42;95605.78;;;4.83;89.41
21900;BME280;11114;50.658;12.704;2023-11-21T07:55:29;95609.84;;;4.85;89.28
21900;BME280;11114;50.658;12.704;2023-11-21T07:58:19;95612.66;;;4.92;89.13
21900;BME280;11114;50.658;12.704;2023-11-21T08:01:05;95600.44;;;4.92;88.58
21900;BME280;11114;50.658;12.704;2023-11-21T08:03:52;95607.59;;;4.90;88.77
21900;BME280;11114;50.658;12.704;2023-11-21T08:06:39;95606.13;;;4.88;89.08
21900;BME280;11114;50.658;12.704;2023-11-21T08:09:28;95604.97;;;4.82;88.82
21900;BME280;11114;50.658;12.704;2023-11-21T08:12:14;95617.16;;;4.82;89.08
21900;BME280;11114;50.658;12.704;2023-11-21T08:15:01;95615.53;;;4.81;88.90
21900;BME280;11114;50.658;12.704;2023-11-21T08:17:49;95611.13;;;4.81;89.06
21900;BME280;11114;50.658;12.704;2023-11-21T08:20:36;95618.78;;;4.83;88.81
21900;BME280;11114;50.658;12.704;2023-11-21T08:23:24;95617.97;;;4.82;89.22
21900;BME280;11114;50.658;12.704;2023-11-21T08:26:21;95619.91;;;4.88;89.18
21900;BME280;11114;50.658;12.704;2023-11-21T08:29:07;95618.47;;;4.86;88.58
21900;BME280;11114;50.658;12.704;2023-11-21T08:31:54;95622.03;;;4.85;88.94
21900;BME280;11114;50.658;12.704;2023-11-21T08:34:41;95619.59;;;4.83;88.95
21900;BME280;11114;50.658;12.704;2023-11-21T08:37:33;95622.34;;;4.82;88.98
21900;BME280;11114;50.658;12.704;2023-11-21T08:40:23;95622.03;;;4.85;89.19
21900;BME280;11114;50.658;12.704;2023-11-21T08:43:09;95626.44;;;4.84;89.27
21900;BME280;11114;50.658;12.704;2023-11-21T08:45:59;95624.59;;;4.77;89.22
21900;BME280;11114;50.658;12.704;2023-11-21T08:48:46;95624.59;;;4.77;89.42
21900;BME280;11114;50.658;12.704;2023-11-21T09:09:17;95646.47;;;5.00;89.96
21900;BME280;11114;50.658;12.704;2023-11-21T09:12:04;95646.63;;;4.98;89.81
21900;BME280;11114;50.658;12.704;2023-11-21T09:14:51;95660.47;;;4.99;89.58
21900;BME280;11114;50.658;12.704;2023-11-21T09:17:37;95663.19;;;4.97;89.77
21900;BME280;11114;50.658;12.704;2023-11-21T09:20:25;95655.25;;;4.99;89.41
21900;BME280;11114;50.658;12.704;2023-11-21T09:23:12;95658.63;;;4.91;89.34
21900;BME280;11114;50.658;12.704;2023-11-21T09:25:58;95663.16;;;4.89;89.27
21900;BME280;11114;50.658;12.704;2023-11-21T09:28:47;95665.25;;;4.86;89.53
21900;BME280;11114;50.658;12.704;2023-11-21T09:31:34;95660.22;;;4.84;89.63
21900;BME280;11114;50.658;12.704;2023-11-21T09:34:22;95666.88;;;4.79;89.64
21900;BME280;11114;50.658;12.704;2023-11-21T09:37:08;95666.53;;;4.74;89.36
21900;BME280;11114;50.658;12.704;2023-11-21T09:39:56;95665.50;;;4.67;89.69
21900;BME280;11114;50.658;12.704;2023-11-21T09:45:39;95678.19;;;4.70;90.41
21900;BME280;11114;50.658;12.704;2023-11-21T09:48:26;95674.63;;;4.71;90.70
21900;BME280;11114;50.658;12.704;2023-11-21T09:51:14;95676.94;;;4.74;90.59
21900;BME280;11114;50.658;12.704;2023-11-21T09:54:03;95673.88;;;4.78;90.66
21900;BME280;11114;50.658;12.704;2023-11-21T09:56:52;95671.06;;;4.72;90.47
21900;BME280;11114;50.658;12.704;2023-11-21T09:59:39;95686.00;;;4.70;90.45
21900;BME280;11114;50.658;12.704;2023-11-21T10:02:27;95675.53;;;4.62;90.99
21900;BME280;11114;50.658;12.704;2023-11-21T10:05:21;95681.50;;;4.55;90.89
21900;BME280;11114;50.658;12.704;2023-11-21T10:08:12;95686.19;;;4.51;91.11
21900;BME280;11114;50.658;12.704;2023-11-21T10:10:59;95686.06;;;4.53;91.60
21900;BME280;11114;50.658;12.704;2023-11-21T10:13:46;95687.16;;;4.50;91.79
21900;BME280;11114;50.658;12.704;2023-11-21T10:16:34;95683.00;;;4.57;92.00
21900;BME280;11114;50.658;12.704;2023-11-21T10:19:21;95687.53;;;4.55;91.86
21900;BME280;11114;50.658;12.704;2023-11-21T10:22:08;95679.56;;;4.57;92.34
21900;BME280;11114;50.658;12.704;2023-11-21T10:24:55;95688.66;;;4.53;91.98
21900;BME280;11114;50.658;12.704;2023-11-21T10:27:42;95684.25;;;4.53;92.67
21900;BME280;11114;50.658;12.704;2023-11-21T10:30:34;95689.06;;;4.66;93.25
21900;BME280;11114;50.658;12.704;2023-11-21T10:33:29;95689.25;;;4.72;92.39
21900;BME280;11114;50.658;12.704;2023-11-21T10:36:26;95683.22;;;4.71;92.45
21900;BME280;11114;50.658;12.704;2023-11-21T10:39:17;95682.44;;;4.71;92.58
21900;BME280;11114;50.658;12.704;2023-11-21T10:42:08;95688.44;;;4.71;92.51
21900;BME280;11114;50.658;12.704;2023-11-21T10:44:55;95688.25;;;4.65;92.62
21900;BME280;11114;50.658;12.704;2023-11-21T10:47:43;95692.75;;;4.63;92.81
21900;BME280;11114;50.658;12.704;2023-11-21T10:50:32;95689.88;;;4.66;93.27
21900;BME280;11114;50.658;12.704;2023-11-21T10:53:19;95692.16;;;4.69;92.87
21900;BME280;11114;50.658;12.704;2023-11-21T10:56:09;95691.38;;;4.68;93.02
21900;BME280;11114;50.658;12.704;2023-11-21T10:59:03;95694.59;;;4.70;93.14
21900;BME280;11114;50.658;12.704;2023-11-21T11:01:50;95696.09;;;4.73;93.12
21900;BME280;11114;50.658;12.704;2023-11-21T11:04:39;95704.38;;;4.68;93.04
21900;BME280;11114;50.658;12.704;2023-11-21T11:07:27;95700.13;;;4.68;92.65
21900;BME280;11114;50.658;12.704;2023-11-21T11:10:15;95710.28;;;4.61;92.89
21900;BME280;11114;50.658;12.704;2023-11-21T11:13:02;95718.09;;;4.61;93.39
21900;BME280;11114;50.658;12.704;2023-11-21T11:15:49;95713.06;;;4.60;93.53
21900;BME280;11114;50.658;12.704;2023-11-21T11:18:38;95718.38;;;4.58;93.18
21900;BME280;11114;50.658;12.704;2023-11-21T11:27:44;95714.63;;;4.53;93.51
21900;BME280;11114;50.658;12.704;2023-11-21T11:33:43;95713.97;;;4.51;94.24
21900;BME280;11114;50.658;12.704;2023-11-21T11:36:42;95715.41;;;4.45;94.43
21900;BME280;11114;50.658;12.704;2023-11-21T11:39:35;95717.50;;;4.42;94.92
21900;BME280;11114;50.658;12.704;2023-11-21T11:42:23;95722.69;;;4.42;95.05
21900;BME280;11114;50.658;12.704;2023-11-21T11:45:19;95714.44;;;4.46;95.36
21900;BME280;11114;50.658;12.704;2023-11-21T11:48:06;95710.53;;;4.50;95.40
21900;BME280;11114;50.658;12.704;2023-11-21T11:53:55;95720.13;;;4.50;94.52
21900;BME280;11114;50.658;12.704;2023-11-21T11:56:41;95719.31;;;4.49;94.54
21900;BME280;11114;50.658;12.704;2023-11-21T11:59:28;95720.13;;;4.50;94.80
21900;BME280;11114;50.658;12.704;2023-11-21T12:02:15;95720.63;;;4.53;94.83
21900;BME280;11114;50.658;12.704;2023-11-21T12:05:08;95722.28;;;4.54;94.39
21900;BME280;11114;50.658;12.704;2023-11-21T12:07:56;95721.97;;;4.57;94.60
21900;BME280;11114;50.658;12.704;2023-11-21T12:10:44;95725.72;;;4.63;94.49
21900;BME280;11114;50.658;12.704;2023-11-21T12:13:31;95731.09;;;4.61;94.42
21900;BME280;11114;50.658;12.704;2023-11-21T12:16:18;95732.06;;;4.60;94.25
21900;BME280;11114;50.658;12.704;2023-11-21T12:19:07;95732.66;;;4.54;94.40
21900;BME280;11114;50.658;12.704;2023-11-21T12:21:53;95740.09;;;4.49;94.32
21900;BME280;11114;50.658;12.704;2023-11-21T12:24:42;95753.13;;;4.32;94.83
21900;BME280;11114;50.658;12.704;2023-11-21T12:27:28;95755.34;;;4.27;95.43
21900;BME280;11114;50.658;12.704;2023-11-21T12:30:17;95755.50;;;4.25;95.45
21900;BME280;11114;50.658;12.704;2023-11-21T12:33:04;95756.94;;;4.20;95.76
21900;BME280;11114;50.658;12.704;2023-11-21T12:35:53;95765.09;;;4.07;96.38
21900;BME280;11114;50.658;12.704;2023-11-21T12:38:40;95767.69;;;4.07;97.10
21900;BME280;11114;50.658;12.704;2023-11-21T12:41:28;95761.94;;;3.96;97.49
21900;BME280;11114;50.658;12.704;2023-11-21T12:44:16;95758.97;;;3.91;97.64
21900;BME280;11114;50.658;12.704;2023-11-21T12:47:03;95774.91;;;3.96;97.69
21900;BME280;11114;50.658;12.704;2023-11-21T12:49:50;95777.78;;;3.93;97.49
21900;BME280;11114;50.658;12.704;2023-11-21T12:52:36;95775.34;;;3.91;97.32
21900;BME280;11114;50.658;12.704;2023-11-21T12:55:25;95769.88;;;3.94;97.08
21900;BME280;11114;50.658;12.704;2023-11-21T12:58:12;95780.47;;;4.01;97.34
21900;BME280;11114;50.658;12.704;2023-11-21T13:00:59;95782.94;;;4.02;96.97
21900;BME280;11114;50.658;12.704;2023-11-21T13:03:47;95785.09;;;4.07;96.38
21900;BME280;11114;50.658;12.704;2023-11-21T13:06:37;95791.06;;;4.07;96.30
21900;BME280;11114;50.658;12.704;2023-11-21T13:09:27;95783.50;;;4.14;95.97
21900;BME280;11114;50.658;12.704;2023-11-21T13:12:14;95784.06;;;4.00;95.10
21900;BME280;11114;50.658;12.704;2023-11-21T13:15:06;95792.72;;;4.08;95.42
21900;BME280;11114;50.658;12.704;2023-11-21T13:17:54;95786.22;;;4.04;94.72
21900;BME280;11114;50.658;12.704;2023-11-21T13:20:42;95793.00;;;4.05;94.80
21900;BME280;11114;50.658;12.704;2023-11-21T13:23:29;95791.16;;;3.98;94.27
21900;BME280;11114;50.658;12.704;2023-11-21T13:26:20;95797.31;;;3.97;94.80
21900;BME280;11114;50.658;12.704;2023-11-21T13:29:08;95800.72;;;3.97;94.88
21900;BME280;11114;50.658;12.704;2023-11-21T13:31:55;95796.13;;;3.91;94.16
21900;BME280;11114;50.658;12.704;2023-11-21T13:34:42;95801.84;;;3.95;94.73
21900;BME280;11114;50.658;12.704;2023-11-21T13:37:31;95804.59;;;3.93;94.74
21900;BME280;11114;50.658;12.704;2023-11-21T13:40:20;95805.72;;;3.91;94.55
21900;BME280;11114;50.658;12.704;2023-11-21T13:43:13;95814.22;;;3.83;92.98
21900;BME280;11114;50.658;12.704;2023-11-21T13:46:00;95813.38;;;3.66;93.88
21900;BME280;11114;50.658;12.704;2023-11-21T13:48:59;95824.47;;;3.58;94.45
21900;BME280;11114;50.658;12.704;2023-11-21T13:51:47;95819.53;;;3.65;94.81
21900;BME280;11114;50.658;12.704;2023-11-21T13:54:38;95819.25;;;3.68;94.68
21900;BME280;11114;50.658;12.704;2023-11-21T13:57:24;95829.03;;;3.74;94.22
21900;BME280;11114;50.658;12.704;2023-11-21T14:00:12;95828.28;;;3.64;93.49
21900;BME280;11114;50.658;12.704;2023-11-21T14:03:18;95842.78;;;3.57;93.70
21900;BME280;11114;50.658;12.704;2023-11-21T14:06:09;95840.88;;;3.59;94.21
21900;BME280;11114;50.658;12.704;2023-11-21T14:09:00;95837.25;;;3.42;92.77
21900;BME280;11114;50.658;12.704;2023-11-21T14:11:55;95840.47;;;3.27;94.60
21900;BME280;11114;50.658;12.704;2023-11-21T14:14:42;95844.41;;;3.31;94.96
21900;BME280;11114;50.658;12.704;2023-11-21T14:17:31;95857.66;;;3.37;94.96
21900;BME280;11114;50.658;12.704;2023-11-21T14:20:17;95850.50;;;3.39;94.43
21900;BME280;11114;50.658;12.704;2023-11-21T14:23:07;95851.44;;;3.48;94.28
21900;BME280;11114;50.658;12.704;2023-11-21T14:25:54;95850.22;;;3.52;94.35
21900;BME280;11114;50.658;12.704;2023-11-21T14:28:41;95851.53;;;3.56;93.47
21900;BME280;11114;50.658;12.704;2023-11-21T14:31:28;95856.22;;;3.52;92.80
21900;BME280;11114;50.658;12.704;2023-11-21T14:34:17;95856.03;;;3.27;92.36
21900;BME280;11114;50.658;12.704;2023-11-21T14:37:08;95869.19;;;3.16;93.77
21900;BME280;11114;50.658;12.704;2023-11-21T14:39:55;95866.19;;;3.20;94.24
21900;BME280;11114;50.658;12.704;2023-11-21T14:42:42;95868.13;;;3.00;92.45
21900;BME280;11114;50.658;12.704;2023-11-21T14:45:28;95876.19;;;2.97;93.72
21900;BME280;11114;50.658;12.704;2023-11-21T14:48:17;95881.53;;;2.95;94.26
21900;BME280;11114;50.658;12.704;2023-11-21T14:51:15;95874.59;;;2.86;93.04
21900;BME280;11114;50.658;12.704;2023-11-21T14:54:05;95882.63;;;2.83;94.04
21900;BME280;11114;50.658;12.704;2023-11-21T14:56:56;95888.91;;;2.90;94.11
21900;BME280;11114;50.658;12.704;2023-11-21T14:59:44;95888.19;;;2.98;94.29
21900;BME280;11114;50.658;12.704;2023-11-21T15:02:39;95891.91;;;2.95;93.24
21900;BME280;11114;50.658;12.704;2023-11-21T15:05:36;95897.59;;;3.08;93.71
21900;BME280;11114;50.658;12.704;2023-11-21T15:08:25;95892.44;;;2.99;91.09
21900;BME280;11114;50.658;12.704;2023-11-21T15:11:19;95908.56;;;2.74;92.62
21900;BME280;11114;50.658;12.704;2023-11-21T15:14:08;95906.13;;;2.63;91.97
21900;BME280;11114;50.658;12.704;2023-11-21T15:16:56;95914.84;;;2.33;92.16
21900;BME280;11114;50.658;12.704;2023-11-21T15:19:45;95930.75;;;2.19;92.20
21900;BME280;11114;50.658;12.704;2023-11-21T15:22:32;95924.75;;;2.10;93.01
21900;BME280;11114;50.658;12.704;2023-11-21T15:25:19;95939.44;;;2.00;93.25